createdAt,value
2019-01-31T00:00:17.040Z,22.50
2019-01-31T00:01:22.541Z,23.00
2019-01-31T00:03:20.927Z,21.00
2019-01-31T00:04:26.450Z,26.00
2019-01-31T00:06:24.849Z,22.90
2019-01-31T00:07:30.363Z,24.90
2019-01-31T00:09:28.750Z,22.70
2019-01-31T00:10:34.278Z,20.00
2019-01-31T00:12:32.676Z,21.30
2019-01-31T00:13:38.193Z,22.20
2019-01-31T00:15:36.578Z,21.90
2019-01-31T00:16:42.100Z,22.90
2019-01-31T00:18:40.503Z,27.00
2019-01-31T00:19:46.014Z,24.40
2019-01-31T00:21:44.400Z,21.30
2019-01-31T00:22:49.925Z,24.70
2019-01-31T00:24:49.051Z,22.30
2019-01-31T00:25:54.560Z,25.40
2019-01-31T00:27:53.463Z,26.00
2019-01-31T00:28:58.968Z,25.60
2019-01-31T00:30:57.354Z,31.10
2019-01-31T00:32:02.876Z,22.60
2019-01-31T00:34:01.279Z,24.50
2019-01-31T00:35:06.784Z,23.60
2019-01-31T00:37:05.170Z,24.80
2019-01-31T00:38:10.698Z,26.30
2019-01-31T00:40:09.099Z,26.20
2019-01-31T00:41:14.621Z,27.80
2019-01-31T00:43:13.001Z,22.60
2019-01-31T00:44:18.528Z,21.20
2019-01-31T00:46:16.928Z,21.90
2019-01-31T00:47:22.427Z,24.10
2019-01-31T00:49:20.822Z,19.80
2019-01-31T00:50:26.342Z,24.40
2019-01-31T00:52:24.747Z,23.00
2019-01-31T00:53:30.254Z,21.90
2019-01-31T00:55:28.657Z,25.50
2019-01-31T00:56:34.176Z,20.60
2019-01-31T00:58:32.581Z,22.00
2019-01-31T00:59:38.089Z,26.00
2019-01-31T01:01:36.488Z,23.50
2019-01-31T01:02:42.003Z,24.10
2019-01-31T01:04:40.387Z,24.90
2019-01-31T01:05:45.911Z,22.40
2019-01-31T01:07:44.812Z,26.10
2019-01-31T01:08:50.319Z,23.10
2019-01-31T01:10:48.702Z,21.60
2019-01-31T01:11:54.234Z,27.00
2019-01-31T01:13:52.638Z,25.30
2019-01-31T01:14:58.139Z,26.50
2019-01-31T01:16:56.538Z,21.40
2019-01-31T01:18:02.062Z,25.50
2019-01-31T01:20:00.458Z,21.70
2019-01-31T01:21:05.967Z,22.10
2019-01-31T01:23:04.851Z,19.10
2019-01-31T01:24:10.375Z,21.90
2019-01-31T01:26:08.778Z,24.20
2019-01-31T01:27:14.290Z,28.80
2019-01-31T01:29:12.694Z,24.50
2019-01-31T01:30:18.366Z,24.00
2019-01-31T01:32:16.590Z,21.50
2019-01-31T01:33:22.113Z,23.70
2019-01-31T01:35:20.520Z,21.80
2019-01-31T01:36:26.029Z,23.60
2019-01-31T01:38:24.423Z,23.20
2019-01-31T01:39:29.942Z,21.70
2019-01-31T01:41:28.349Z,22.50
2019-01-31T01:42:33.858Z,21.80
2019-01-31T01:44:32.250Z,23.10
2019-01-31T01:45:37.851Z,23.90
2019-01-31T01:47:36.206Z,22.90
2019-01-31T01:48:41.686Z,19.20
2019-01-31T01:50:40.071Z,22.00
2019-01-31T01:51:45.600Z,27.60
2019-01-31T01:53:43.998Z,26.10
2019-01-31T01:54:49.511Z,24.10
2019-01-31T01:56:47.915Z,23.30
2019-01-31T01:57:53.425Z,23.80
2019-01-31T01:59:51.811Z,21.90
2019-01-31T02:00:57.335Z,27.50
2019-01-31T02:02:55.736Z,23.70
2019-01-31T02:04:01.250Z,24.30
2019-01-31T02:05:59.637Z,26.20
2019-01-31T02:07:05.157Z,24.50
2019-01-31T02:09:03.560Z,25.80
2019-01-31T02:10:09.074Z,21.70
2019-01-31T02:12:07.484Z,20.40
2019-01-31T02:13:12.987Z,26.30
2019-01-31T02:15:11.373Z,23.00
2019-01-31T02:16:16.895Z,24.50
2019-01-31T02:18:15.298Z,24.70
2019-01-31T02:19:20.809Z,25.70
2019-01-31T02:21:19.694Z,22.90
2019-01-31T02:22:25.219Z,25.00
2019-01-31T02:24:23.622Z,24.40
2019-01-31T02:25:29.133Z,23.70
2019-01-31T02:27:27.518Z,21.70
2019-01-31T02:28:33.037Z,21.20
2019-01-31T02:30:31.446Z,25.30
2019-01-31T02:31:36.953Z,24.70
2019-01-31T02:33:35.348Z,26.00
2019-01-31T02:34:40.872Z,24.30
2019-01-31T02:36:39.271Z,27.10
2019-01-31T02:37:44.783Z,23.40
2019-01-31T02:39:43.548Z,28.80
2019-01-31T02:40:48.697Z,25.30
2019-01-31T02:42:47.083Z,27.20
2019-01-31T02:43:52.607Z,19.80
2019-01-31T02:45:51.012Z,19.00
2019-01-31T02:46:56.519Z,21.20
2019-01-31T02:48:54.907Z,26.50
2019-01-31T02:50:00.561Z,27.10
2019-01-31T02:51:58.845Z,25.40
2019-01-31T02:53:04.349Z,23.40
2019-01-31T02:55:02.740Z,23.80
2019-01-31T02:56:08.263Z,23.40
2019-01-31T02:58:06.667Z,21.70
2019-01-31T02:59:12.175Z,26.10
2019-01-31T03:01:10.675Z,22.80
2019-01-31T03:02:16.090Z,21.70
2019-01-31T03:04:14.987Z,23.60
2019-01-31T03:05:20.507Z,23.50
2019-01-31T03:07:18.908Z,22.30
2019-01-31T03:08:24.491Z,24.90
2019-01-31T03:10:23.294Z,23.60
2019-01-31T03:11:28.822Z,25.50
2019-01-31T03:13:27.221Z,26.30
2019-01-31T03:14:32.734Z,25.80
2019-01-31T03:16:31.180Z,23.20
2019-01-31T03:17:36.648Z,27.80
2019-01-31T03:19:35.055Z,26.60
2019-01-31T03:20:40.566Z,26.90
2019-01-31T03:22:39.465Z,26.20
2019-01-31T03:23:44.970Z,24.30
2019-01-31T03:25:43.356Z,34.00
2019-01-31T03:26:48.881Z,27.00
2019-01-31T03:28:47.283Z,26.90
2019-01-31T03:29:52.790Z,23.40
2019-01-31T03:31:51.185Z,26.10
2019-01-31T03:32:56.704Z,24.60
2019-01-31T03:34:55.106Z,21.70
2019-01-31T03:36:00.615Z,21.10
2019-01-31T03:37:59.006Z,23.90
2019-01-31T03:39:04.531Z,23.30
2019-01-31T03:41:02.933Z,23.20
2019-01-31T03:42:08.449Z,24.60
2019-01-31T03:44:06.832Z,24.80
2019-01-31T03:45:12.359Z,22.80
2019-01-31T03:47:10.753Z,27.80
2019-01-31T03:48:16.267Z,24.10
2019-01-31T03:50:14.669Z,23.30
2019-01-31T03:51:20.179Z,24.90
2019-01-31T03:53:18.571Z,20.10
2019-01-31T03:54:24.091Z,26.50
2019-01-31T03:56:22.495Z,21.60
2019-01-31T03:57:28.009Z,22.00
2019-01-31T03:59:26.394Z,22.40
2019-01-31T04:00:31.926Z,19.60
2019-01-31T04:02:30.327Z,30.50
2019-01-31T04:03:35.837Z,24.50
2019-01-31T04:05:34.221Z,25.00
2019-01-31T04:06:39.749Z,25.00
2019-01-31T04:08:38.152Z,21.30
2019-01-31T04:09:43.668Z,24.30
2019-01-31T04:11:42.072Z,21.20
2019-01-31T04:12:47.574Z,25.70
2019-01-31T04:14:45.963Z,26.50
2019-01-31T04:15:51.488Z,25.30
2019-01-31T04:17:49.898Z,20.70
2019-01-31T04:18:55.400Z,25.70
2019-01-31T04:20:53.789Z,25.90
2019-01-31T04:21:59.314Z,23.10
2019-01-31T04:23:57.715Z,24.30
2019-01-31T04:25:03.226Z,22.80
2019-01-31T04:27:01.619Z,20.50
2019-01-31T04:28:07.144Z,25.50
2019-01-31T04:30:05.555Z,22.70
2019-01-31T04:31:11.051Z,22.90
2019-01-31T04:33:09.444Z,24.40
2019-01-31T04:34:14.976Z,19.00
2019-01-31T04:36:13.371Z,27.50
2019-01-31T04:37:18.884Z,25.20
2019-01-31T04:39:17.270Z,23.70
2019-01-31T04:40:30.819Z,20.00
2019-01-31T04:42:21.196Z,29.30
2019-01-31T04:43:26.708Z,26.30
2019-01-31T04:45:25.100Z,22.70
2019-01-31T04:46:30.627Z,22.10
2019-01-31T04:48:29.024Z,23.20
2019-01-31T04:49:34.539Z,23.20
2019-01-31T04:51:32.926Z,21.80
2019-01-31T04:52:38.451Z,23.10
2019-01-31T04:54:36.852Z,23.50
2019-01-31T04:55:42.360Z,22.80
2019-01-31T04:57:40.752Z,22.00
2019-01-31T04:58:46.274Z,23.90
2019-01-31T05:00:44.681Z,22.30
2019-01-31T05:01:50.186Z,24.20
2019-01-31T05:03:48.577Z,24.40
2019-01-31T05:04:54.103Z,26.00
2019-01-31T05:06:52.716Z,25.60
2019-01-31T05:07:58.016Z,24.70
2019-01-31T05:09:56.408Z,26.10
2019-01-31T05:11:01.927Z,24.20
2019-01-31T05:13:00.338Z,31.20
2019-01-31T05:14:05.839Z,27.80
2019-01-31T05:16:04.440Z,28.40
2019-01-31T05:17:09.747Z,26.10
2019-01-31T05:19:08.154Z,26.10
2019-01-31T05:20:13.666Z,24.60
2019-01-31T05:22:12.058Z,26.60
2019-01-31T05:23:17.580Z,25.20
2019-01-31T05:25:16.011Z,27.90
2019-01-31T05:26:21.492Z,25.10
2019-01-31T05:28:19.880Z,23.10
2019-01-31T05:29:25.404Z,26.10
2019-01-31T05:31:23.830Z,22.50
2019-01-31T05:32:29.319Z,26.70
2019-01-31T05:34:27.710Z,32.70
2019-01-31T05:35:33.230Z,29.00
2019-01-31T05:37:31.631Z,26.40
2019-01-31T05:38:37.146Z,27.90
2019-01-31T05:40:35.587Z,30.30
2019-01-31T05:41:41.052Z,30.50
2019-01-31T05:43:40.307Z,26.10
2019-01-31T05:44:45.815Z,32.60
2019-01-31T05:46:44.201Z,29.70
2019-01-31T05:47:49.731Z,35.60
2019-01-31T05:49:48.128Z,45.50
2019-01-31T05:50:53.643Z,44.90
2019-01-31T05:52:52.032Z,28.60
2019-01-31T05:53:57.557Z,22.10
2019-01-31T05:55:55.967Z,21.50
2019-01-31T05:57:01.469Z,21.00
2019-01-31T05:58:59.856Z,25.10
2019-01-31T06:00:05.388Z,24.30
2019-01-31T06:02:03.785Z,22.20
2019-01-31T06:03:09.297Z,20.40
2019-01-31T06:05:07.688Z,25.20
2019-01-31T06:06:13.212Z,25.70
2019-01-31T06:08:11.617Z,25.70
2019-01-31T06:09:17.126Z,35.40
2019-01-31T06:11:15.509Z,26.80
2019-01-31T06:12:21.036Z,24.50
2019-01-31T06:14:19.441Z,23.30
2019-01-31T06:15:24.951Z,23.20
2019-01-31T06:17:23.337Z,20.20
2019-01-31T06:18:28.863Z,22.40
2019-01-31T06:20:27.271Z,23.90
2019-01-31T06:21:32.773Z,24.60
2019-01-31T06:23:31.162Z,22.60
2019-01-31T06:26:08.262Z,22.30
2019-01-31T06:27:13.773Z,19.70
2019-01-31T06:29:12.175Z,23.80
2019-01-31T06:30:17.686Z,24.10
2019-01-31T06:32:16.096Z,20.90
2019-01-31T06:33:21.601Z,18.80
2019-01-31T06:35:19.985Z,23.00
2019-01-31T06:36:25.510Z,23.60
2019-01-31T06:38:23.931Z,21.90
2019-01-31T06:39:29.423Z,24.60
2019-01-31T06:41:27.811Z,21.50
2019-01-31T06:42:33.336Z,20.90
2019-01-31T06:44:31.747Z,21.00
2019-01-31T06:45:37.253Z,21.50
2019-01-31T06:47:35.638Z,20.20
2019-01-31T06:48:41.167Z,22.40
2019-01-31T06:50:39.574Z,22.60
2019-01-31T06:51:45.186Z,21.60
2019-01-31T06:53:43.461Z,21.50
2019-01-31T06:54:48.988Z,22.70
2019-01-31T06:56:47.393Z,25.00
2019-01-31T06:57:52.900Z,24.70
2019-01-31T06:59:51.523Z,18.90
2019-01-31T07:00:57.047Z,21.40
2019-01-31T07:02:56.306Z,20.10
2019-01-31T07:04:01.812Z,22.10
2019-01-31T07:06:00.198Z,22.90
2019-01-31T07:07:05.722Z,25.60
2019-01-31T07:09:04.125Z,24.30
2019-01-31T07:10:09.639Z,24.30
2019-01-31T07:12:08.032Z,24.20
2019-01-31T07:13:13.554Z,23.40
2019-01-31T07:15:11.960Z,24.20
2019-01-31T07:16:17.463Z,21.70
2019-01-31T07:18:15.852Z,24.80
2019-01-31T07:19:21.374Z,23.70
2019-01-31T07:21:19.778Z,20.80
2019-01-31T07:22:25.289Z,24.30
2019-01-31T07:24:23.677Z,21.50
2019-01-31T07:25:29.197Z,23.60
2019-01-31T07:27:27.612Z,20.70
2019-01-31T07:28:33.115Z,27.30
2019-01-31T07:30:31.507Z,18.80
2019-01-31T07:31:37.029Z,20.80
2019-01-31T07:33:35.433Z,20.70
2019-01-31T07:34:40.943Z,22.40
2019-01-31T07:36:39.330Z,22.20
2019-01-31T07:37:44.857Z,23.00
2019-01-31T07:39:43.260Z,20.00
2019-01-31T07:40:48.764Z,24.00
2019-01-31T07:42:47.161Z,19.50
2019-01-31T07:43:52.681Z,19.50
2019-01-31T07:45:51.083Z,18.30
2019-01-31T07:46:56.597Z,23.10
2019-01-31T07:48:54.986Z,24.00
2019-01-31T07:50:00.512Z,23.40
2019-01-31T07:51:58.922Z,21.60
2019-01-31T07:53:04.423Z,17.60
2019-01-31T07:55:02.827Z,18.40
2019-01-31T07:56:08.335Z,22.10
2019-01-31T07:58:06.735Z,21.70
2019-01-31T07:59:12.247Z,22.90
2019-01-31T08:01:10.635Z,22.70
2019-01-31T08:02:16.160Z,23.00
2019-01-31T08:04:14.563Z,21.00
2019-01-31T08:05:20.072Z,23.70
2019-01-31T08:07:18.464Z,22.10
2019-01-31T08:08:23.990Z,27.50
2019-01-31T08:10:22.401Z,21.10
2019-01-31T08:11:27.903Z,22.40
2019-01-31T08:13:26.413Z,21.80
2019-01-31T08:14:31.818Z,20.30
2019-01-31T08:16:30.220Z,21.90
2019-01-31T08:17:35.731Z,22.20
2019-01-31T08:19:34.362Z,22.40
2019-01-31T08:20:39.885Z,19.90
2019-01-31T08:22:38.296Z,23.60
2019-01-31T08:23:43.812Z,21.90
2019-01-31T08:25:42.189Z,20.50
2019-01-31T08:26:47.718Z,19.80
2019-01-31T08:28:46.123Z,23.00
2019-01-31T08:29:51.635Z,23.60
2019-01-31T08:31:50.030Z,22.30
2019-01-31T08:32:56.103Z,22.00
2019-01-31T08:34:53.954Z,22.50
2019-01-31T08:35:59.466Z,21.70
2019-01-31T08:37:57.849Z,19.80
2019-01-31T08:39:03.380Z,20.20
2019-01-31T08:41:01.776Z,23.80
2019-01-31T08:42:07.290Z,19.00
2019-01-31T08:44:05.677Z,21.80
2019-01-31T08:45:11.203Z,22.70
2019-01-31T08:47:09.608Z,23.30
2019-01-31T08:48:15.119Z,23.60
2019-01-31T08:50:13.506Z,23.40
2019-01-31T08:51:19.028Z,23.30
2019-01-31T08:53:17.431Z,22.20
2019-01-31T08:54:22.942Z,22.30
2019-01-31T08:56:21.397Z,23.00
2019-01-31T08:57:26.861Z,24.50
2019-01-31T08:59:25.249Z,23.40
2019-01-31T09:00:30.775Z,21.50
2019-01-31T09:02:29.176Z,22.70
2019-01-31T09:03:34.683Z,25.70
2019-01-31T09:05:33.069Z,21.10
2019-01-31T09:06:38.602Z,20.60
2019-01-31T09:08:37.004Z,25.60
2019-01-31T09:09:42.513Z,20.90
2019-01-31T09:11:40.902Z,25.00
2019-01-31T09:12:46.425Z,24.00
2019-01-31T09:14:44.841Z,23.60
2019-01-31T09:15:50.340Z,21.60
2019-01-31T09:17:48.736Z,21.90
2019-01-31T09:18:54.253Z,20.90
2019-01-31T09:20:52.675Z,22.90
2019-01-31T09:21:58.173Z,21.00
2019-01-31T09:23:56.566Z,20.90
2019-01-31T09:25:02.087Z,20.90
2019-01-31T09:27:00.601Z,24.70
2019-01-31T09:28:06.105Z,23.90
2019-01-31T09:30:04.725Z,22.10
2019-01-31T09:31:10.018Z,23.00
2019-01-31T09:33:08.521Z,20.60
2019-01-31T09:34:13.931Z,20.40
2019-01-31T09:36:12.321Z,24.20
2019-01-31T09:37:17.845Z,24.00
2019-01-31T09:39:16.255Z,22.20
2019-01-31T09:40:21.757Z,22.70
2019-01-31T09:42:26.726Z,21.00
2019-01-31T09:43:25.676Z,22.40
2019-01-31T09:46:56.492Z,23.00
2019-01-31T09:48:01.999Z,24.30
2019-01-31T09:50:00.391Z,22.10
2019-01-31T09:51:05.933Z,26.10
2019-01-31T09:53:04.325Z,24.10
2019-01-31T09:54:09.835Z,24.50
2019-01-31T09:56:08.223Z,24.20
2019-01-31T09:57:13.751Z,22.90
2019-01-31T09:59:12.155Z,20.20
2019-01-31T10:00:27.118Z,21.50
2019-01-31T10:02:16.065Z,25.20
2019-01-31T10:03:21.585Z,27.40
2019-01-31T10:05:19.998Z,25.50
2019-01-31T10:06:25.509Z,23.80
2019-01-31T10:08:23.890Z,26.00
2019-01-31T10:09:29.421Z,25.70
2019-01-31T10:11:27.903Z,23.90
2019-01-31T10:12:38.273Z,23.50
2019-01-31T10:14:31.780Z,24.50
2019-01-31T10:15:37.276Z,24.80
2019-01-31T10:17:35.680Z,23.20
2019-01-31T10:18:41.176Z,27.10
2019-01-31T10:20:39.557Z,22.40
2019-01-31T10:21:45.150Z,24.00
2019-01-31T10:23:43.509Z,31.00
2019-01-31T10:24:49.019Z,24.30
2019-01-31T10:26:47.385Z,24.40
2019-01-31T10:27:52.912Z,25.10
2019-01-31T10:29:53.022Z,25.80
2019-01-31T10:30:56.828Z,27.40
2019-01-31T10:32:55.216Z,27.00
2019-01-31T10:34:00.744Z,24.50
2019-01-31T10:35:59.151Z,28.60
2019-01-31T10:37:04.656Z,27.10
2019-01-31T10:39:03.897Z,23.60
2019-01-31T10:40:09.424Z,23.40
2019-01-31T10:42:07.838Z,25.00
2019-01-31T10:43:13.343Z,26.30
2019-01-31T10:45:11.736Z,22.80
2019-01-31T10:46:17.267Z,24.70
2019-01-31T10:48:15.659Z,24.30
2019-01-31T10:49:21.182Z,22.20
2019-01-31T10:51:19.570Z,24.80
2019-01-31T10:52:25.097Z,22.80
2019-01-31T10:54:23.502Z,20.70
2019-01-31T10:55:29.015Z,21.90
2019-01-31T10:57:27.412Z,24.40
2019-01-31T10:58:32.934Z,23.90
2019-01-31T11:00:31.343Z,23.60
2019-01-31T11:01:36.851Z,24.30
2019-01-31T11:03:35.242Z,21.50
2019-01-31T11:04:40.767Z,20.30
2019-01-31T11:06:39.172Z,21.80
2019-01-31T11:07:44.683Z,21.70
2019-01-31T11:09:43.115Z,21.20
2019-01-31T11:10:48.614Z,20.90
2019-01-31T11:12:47.008Z,27.30
2019-01-31T11:13:52.537Z,21.10
2019-01-31T11:15:50.941Z,16.90
2019-01-31T11:16:56.454Z,19.50
2019-01-31T11:18:55.138Z,18.80
2019-01-31T11:20:00.372Z,20.10
2019-01-31T11:21:58.782Z,20.50
2019-01-31T11:23:04.295Z,20.60
2019-01-31T11:25:02.694Z,21.90
2019-01-31T11:26:08.225Z,21.30
2019-01-31T11:28:06.622Z,18.10
2019-01-31T11:29:12.137Z,26.80
2019-01-31T11:31:10.531Z,18.30
2019-01-31T11:32:16.063Z,18.30
2019-01-31T11:34:14.469Z,15.60
2019-01-31T11:35:19.980Z,16.00
2019-01-31T11:37:18.377Z,16.60
2019-01-31T11:38:23.905Z,13.50
2019-01-31T11:40:22.309Z,19.90
2019-01-31T11:41:27.824Z,14.70
2019-01-31T11:43:26.219Z,13.60
2019-01-31T11:44:31.749Z,15.20
2019-01-31T11:46:30.148Z,15.60
2019-01-31T11:47:35.669Z,14.20
2019-01-31T11:49:34.086Z,13.70
2019-01-31T11:50:39.590Z,13.50
2019-01-31T11:52:37.987Z,11.70
2019-01-31T11:53:43.520Z,12.20
2019-01-31T11:55:41.926Z,9.10
2019-01-31T11:56:47.440Z,11.30
2019-01-31T11:58:45.831Z,8.70
2019-01-31T11:59:51.362Z,9.30
2019-01-31T12:01:49.764Z,7.40
2019-01-31T12:02:55.431Z,7.50
2019-01-31T12:04:53.672Z,9.10
2019-01-31T12:05:59.205Z,10.70
2019-01-31T12:07:57.602Z,7.80
2019-01-31T12:09:03.126Z,9.40
2019-01-31T12:11:01.528Z,9.80
2019-01-31T12:12:07.047Z,7.70
2019-01-31T12:14:06.283Z,8.40
2019-01-31T12:15:11.930Z,9.70
2019-01-31T12:17:10.232Z,9.80
2019-01-31T12:18:15.741Z,8.20
2019-01-31T12:20:14.140Z,10.90
2019-01-31T12:21:19.662Z,11.50
2019-01-31T12:23:18.067Z,14.20
2019-01-31T12:24:23.578Z,13.50
2019-01-31T12:26:21.989Z,16.00
2019-01-31T12:27:27.495Z,16.20
2019-01-31T12:29:25.894Z,12.50
2019-01-31T12:30:31.416Z,12.90
2019-01-31T12:32:29.826Z,12.20
2019-01-31T12:33:35.346Z,14.20
2019-01-31T12:35:34.590Z,14.30
2019-01-31T12:36:40.116Z,13.50
2019-01-31T12:38:38.522Z,11.00
2019-01-31T12:39:44.040Z,11.20
2019-01-31T12:41:42.441Z,13.20
2019-01-31T12:42:47.960Z,14.60
2019-01-31T12:44:46.596Z,13.50
2019-01-31T12:45:52.121Z,10.50
2019-01-31T12:47:50.535Z,13.80
2019-01-31T12:48:56.052Z,14.70
2019-01-31T12:50:54.462Z,11.20
2019-01-31T12:51:59.973Z,12.50
2019-01-31T12:53:58.368Z,19.10
2019-01-31T12:55:03.899Z,15.20
2019-01-31T12:57:02.305Z,14.00
2019-01-31T12:58:08.363Z,14.70
2019-01-31T13:00:06.704Z,9.70
2019-01-31T13:01:12.230Z,13.90
2019-01-31T13:03:10.640Z,12.20
2019-01-31T13:04:16.156Z,13.10
2019-01-31T13:06:14.564Z,12.30
2019-01-31T13:07:20.070Z,13.30
2019-01-31T13:09:18.471Z,13.70
2019-01-31T13:10:23.998Z,12.50
2019-01-31T13:12:22.414Z,16.60
2019-01-31T13:13:27.921Z,13.50
2019-01-31T13:15:26.315Z,10.30
2019-01-31T13:16:31.835Z,10.70
2019-01-31T13:18:30.250Z,11.10
2019-01-31T13:19:35.761Z,11.20
2019-01-31T13:21:35.020Z,12.90
2019-01-31T13:22:40.534Z,9.50
2019-01-31T13:24:38.925Z,11.60
2019-01-31T13:25:44.454Z,15.50
2019-01-31T13:27:42.865Z,13.70
2019-01-31T13:28:48.377Z,13.10
2019-01-31T13:30:46.770Z,11.70
2019-01-31T13:31:52.294Z,12.40
2019-01-31T13:33:50.704Z,13.40
2019-01-31T13:34:56.224Z,12.90
2019-01-31T13:36:54.634Z,10.60
2019-01-31T13:38:00.142Z,12.10
2019-01-31T13:39:58.542Z,11.50
2019-01-31T13:41:04.076Z,10.10
2019-01-31T13:43:03.348Z,9.00
2019-01-31T13:44:08.863Z,10.20
2019-01-31T13:46:07.255Z,12.30
2019-01-31T13:47:12.784Z,12.70
2019-01-31T13:49:11.185Z,10.90
2019-01-31T13:50:16.704Z,10.80
2019-01-31T13:52:15.116Z,9.30
2019-01-31T13:53:20.622Z,8.90
2019-01-31T13:55:19.014Z,10.10
2019-01-31T13:56:24.545Z,10.40
2019-01-31T13:58:23.805Z,11.30
2019-01-31T13:59:29.314Z,10.50
2019-01-31T14:01:27.708Z,9.20
2019-01-31T14:02:33.234Z,9.30
2019-01-31T14:04:31.643Z,9.40
2019-01-31T14:05:37.154Z,11.50
2019-01-31T14:07:35.559Z,12.00
2019-01-31T14:08:41.077Z,13.60
2019-01-31T14:10:39.473Z,9.20
2019-01-31T14:11:44.999Z,10.90
2019-01-31T14:13:43.401Z,12.30
2019-01-31T14:14:48.916Z,11.40
2019-01-31T14:16:48.105Z,11.20
2019-01-31T14:17:52.838Z,10.00
2019-01-31T14:19:51.238Z,13.90
2019-01-31T14:20:56.752Z,10.50
2019-01-31T14:22:55.170Z,9.40
2019-01-31T14:24:00.669Z,11.30
2019-01-31T14:25:59.914Z,9.60
2019-01-31T14:27:05.439Z,8.80
2019-01-31T14:29:03.843Z,10.40
2019-01-31T14:30:09.363Z,13.90
2019-01-31T14:32:07.768Z,10.90
2019-01-31T14:33:13.276Z,11.20
2019-01-31T14:35:11.666Z,10.80
2019-01-31T14:36:17.195Z,9.00
2019-01-31T14:38:15.595Z,14.20
2019-01-31T14:39:21.115Z,11.40
2019-01-31T14:41:19.502Z,8.10
2019-01-31T14:42:25.029Z,9.70
2019-01-31T14:44:23.427Z,8.00
2019-01-31T14:45:30.201Z,10.40
2019-01-31T14:47:27.360Z,11.60
2019-01-31T14:48:32.875Z,11.90
2019-01-31T14:50:31.263Z,9.60
2019-01-31T14:51:36.790Z,9.50
2019-01-31T14:53:35.197Z,8.90
2019-01-31T14:54:40.711Z,8.10
2019-01-31T14:56:39.943Z,8.60
2019-01-31T14:57:45.478Z,7.20
2019-01-31T14:59:43.884Z,11.60
2019-01-31T15:00:49.394Z,12.70
2019-01-31T15:02:47.802Z,10.90
2019-01-31T15:03:53.312Z,7.50
2019-01-31T15:05:51.837Z,9.10
2019-01-31T15:06:57.233Z,9.70
2019-01-31T15:08:55.635Z,8.40
2019-01-31T15:10:01.154Z,9.30
2019-01-31T15:11:59.541Z,8.40
2019-01-31T15:13:05.066Z,9.70
2019-01-31T15:15:03.477Z,7.90
2019-01-31T15:16:08.986Z,8.00
2019-01-31T15:18:07.391Z,8.70
2019-01-31T15:19:12.901Z,10.00
2019-01-31T15:21:11.530Z,8.40
2019-01-31T15:22:17.051Z,8.90
2019-01-31T15:24:15.459Z,9.70
2019-01-31T15:25:20.972Z,9.40
2019-01-31T15:27:19.365Z,8.00
2019-01-31T15:28:24.890Z,9.70
2019-01-31T15:30:23.301Z,10.20
2019-01-31T15:31:28.815Z,11.70
2019-01-31T15:33:27.212Z,9.20
2019-01-31T15:34:33.277Z,6.80
2019-01-31T15:36:31.119Z,8.00
2019-01-31T15:37:36.646Z,5.90
2019-01-31T15:39:35.050Z,9.30
2019-01-31T15:40:40.704Z,10.70
2019-01-31T15:42:38.959Z,9.90
2019-01-31T15:43:44.487Z,10.00
2019-01-31T15:45:42.893Z,7.60
2019-01-31T15:46:48.402Z,9.50
2019-01-31T15:48:46.818Z,10.00
2019-01-31T15:49:52.326Z,8.20
2019-01-31T15:51:50.730Z,7.50
2019-01-31T15:52:56.254Z,8.40
2019-01-31T15:54:54.663Z,7.40
2019-01-31T15:56:00.176Z,7.60
2019-01-31T15:57:59.419Z,11.50
2019-01-31T15:59:04.944Z,15.50
2019-01-31T16:01:03.362Z,18.30
2019-01-31T16:02:08.864Z,14.10
2019-01-31T16:04:07.271Z,12.70
2019-01-31T16:05:19.143Z,11.90
2019-01-31T16:07:11.167Z,13.10
2019-01-31T16:08:16.698Z,8.30
2019-01-31T16:10:15.112Z,9.60
2019-01-31T16:11:20.621Z,10.50
2019-01-31T16:13:19.051Z,9.00
2019-01-31T16:14:24.587Z,9.80
2019-01-31T16:16:22.952Z,9.90
2019-01-31T16:17:28.481Z,11.60
2019-01-31T16:19:26.888Z,9.00
2019-01-31T16:20:32.399Z,8.40
2019-01-31T16:22:30.789Z,7.70
2019-01-31T16:23:36.316Z,9.10
2019-01-31T16:25:34.729Z,7.00
2019-01-31T16:26:40.234Z,7.10
2019-01-31T16:28:38.645Z,7.80
2019-01-31T16:29:44.155Z,12.20
2019-01-31T16:31:42.543Z,10.00
2019-01-31T16:32:48.062Z,7.10
2019-01-31T16:34:46.472Z,10.60
2019-01-31T16:35:53.832Z,12.80
2019-01-31T16:37:50.380Z,7.60
2019-01-31T16:38:55.908Z,7.90
2019-01-31T16:40:54.311Z,7.30
2019-01-31T16:41:59.821Z,11.30
2019-01-31T16:43:58.228Z,13.20
2019-01-31T16:45:06.897Z,11.70
2019-01-31T16:47:02.129Z,9.00
2019-01-31T16:48:07.660Z,11.30
2019-01-31T16:50:06.057Z,9.50
2019-01-31T16:51:11.568Z,10.30
2019-01-31T16:53:09.957Z,9.90
2019-01-31T16:54:16.041Z,9.00
2019-01-31T16:56:13.886Z,7.20
2019-01-31T16:57:19.404Z,9.70
2019-01-31T16:59:17.806Z,8.80
2019-01-31T17:00:23.318Z,10.00
2019-01-31T17:02:21.706Z,12.10
2019-01-31T17:03:27.229Z,11.10
2019-01-31T17:05:26.483Z,9.30
2019-01-31T17:06:31.997Z,10.50
2019-01-31T17:08:30.380Z,11.20
2019-01-31T17:09:35.909Z,10.50
2019-01-31T17:11:34.323Z,10.10
2019-01-31T17:12:39.825Z,9.50
2019-01-31T17:14:38.228Z,11.60
2019-01-31T17:15:43.740Z,10.40
2019-01-31T17:17:42.130Z,11.30
2019-01-31T17:18:47.658Z,11.60
2019-01-31T17:20:46.055Z,10.30
2019-01-31T17:21:51.567Z,9.50
2019-01-31T17:23:49.960Z,11.60
2019-01-31T17:24:55.483Z,9.90
2019-01-31T17:26:53.888Z,10.90
2019-01-31T17:27:59.398Z,10.20
2019-01-31T17:29:57.807Z,12.80
2019-01-31T17:31:03.313Z,9.10
2019-01-31T17:33:01.737Z,11.30
2019-01-31T17:34:07.236Z,11.10
2019-01-31T17:36:05.629Z,10.10
2019-01-31T17:37:11.147Z,10.50
2019-01-31T17:39:09.535Z,8.20
2019-01-31T17:40:15.059Z,7.90
2019-01-31T17:42:13.479Z,11.10
2019-01-31T17:43:18.992Z,10.00
2019-01-31T17:45:17.391Z,10.40
2019-01-31T17:46:22.903Z,9.90
2019-01-31T17:48:21.293Z,13.90
2019-01-31T17:49:26.818Z,9.70
2019-01-31T17:51:25.225Z,10.40
2019-01-31T17:52:30.740Z,7.60
2019-01-31T17:54:29.136Z,8.40
2019-01-31T17:55:34.649Z,6.70
2019-01-31T17:57:33.068Z,10.40
2019-01-31T17:58:38.610Z,7.60
2019-01-31T18:00:37.009Z,10.50
2019-01-31T18:01:42.522Z,8.90
2019-01-31T18:03:40.909Z,8.80
2019-01-31T18:04:46.555Z,9.40
2019-01-31T18:06:44.882Z,12.20
2019-01-31T18:07:50.392Z,8.80
2019-01-31T18:09:48.797Z,9.90
2019-01-31T18:10:54.296Z,9.90
2019-01-31T18:12:52.687Z,8.30
2019-01-31T18:13:58.763Z,8.80
2019-01-31T18:15:56.615Z,13.90
2019-01-31T18:17:02.129Z,11.40
2019-01-31T18:19:00.518Z,10.50
2019-01-31T18:20:06.043Z,10.00
2019-01-31T18:22:04.444Z,10.20
2019-01-31T18:23:09.965Z,13.00
2019-01-31T18:25:08.356Z,10.00
2019-01-31T18:26:13.871Z,11.60
2019-01-31T18:28:12.604Z,9.80
2019-01-31T18:29:17.784Z,10.40
2019-01-31T18:31:16.190Z,9.20
2019-01-31T18:32:21.696Z,9.50
2019-01-31T18:34:20.085Z,11.10
2019-01-31T18:35:25.612Z,13.10
2019-01-31T18:37:24.039Z,10.90
2019-01-31T18:38:29.531Z,10.30
2019-01-31T18:40:28.027Z,9.40
2019-01-31T18:41:33.451Z,9.80
2019-01-31T18:43:31.831Z,12.80
2019-01-31T18:44:37.352Z,11.60
2019-01-31T18:46:35.758Z,12.00
2019-01-31T18:47:41.266Z,14.60
2019-01-31T18:49:39.650Z,11.50
2019-01-31T18:50:45.174Z,10.20
2019-01-31T18:52:43.578Z,11.10
2019-01-31T18:53:49.089Z,8.60
2019-01-31T18:55:47.490Z,13.00
2019-01-31T18:56:53.007Z,13.10
2019-01-31T18:58:51.389Z,11.50
2019-01-31T18:59:56.917Z,11.90
2019-01-31T19:01:55.313Z,12.40
2019-01-31T19:03:00.830Z,11.30
2019-01-31T19:04:59.216Z,12.30
2019-01-31T19:06:04.745Z,12.70
2019-01-31T19:08:05.627Z,12.70
2019-01-31T19:09:08.653Z,14.40
2019-01-31T19:11:07.049Z,13.10
2019-01-31T19:12:12.562Z,12.10
2019-01-31T19:14:10.966Z,12.50
2019-01-31T19:15:16.498Z,10.90
2019-01-31T19:17:14.894Z,12.10
2019-01-31T19:18:20.402Z,12.60
2019-01-31T19:20:18.789Z,13.90
2019-01-31T19:21:24.316Z,12.60
2019-01-31T19:23:22.715Z,13.60
2019-01-31T19:24:28.228Z,12.60
2019-01-31T19:26:26.656Z,13.10
2019-01-31T19:27:32.150Z,13.80
2019-01-31T19:29:30.540Z,13.50
2019-01-31T19:30:36.066Z,11.20
2019-01-31T19:32:34.463Z,14.60
2019-01-31T19:33:39.988Z,12.00
2019-01-31T19:35:38.360Z,12.10
2019-01-31T19:36:43.884Z,15.60
2019-01-31T19:38:42.355Z,16.10
2019-01-31T19:39:47.796Z,15.30
2019-01-31T19:41:46.189Z,12.90
2019-01-31T19:42:51.705Z,17.60
2019-01-31T19:44:50.114Z,14.50
2019-01-31T19:45:55.617Z,16.60
2019-01-31T19:47:54.225Z,13.90
2019-01-31T19:48:59.755Z,16.70
2019-01-31T19:50:58.162Z,13.70
2019-01-31T19:52:03.665Z,17.90